Time,TemperatureF,DewpointF,PressureIn,WindDirection,WindDirectionDegrees,WindSpeedMPH,WindSpeedGustMPH,Humidity,HourlyPrecipIn,Conditions,Clouds,dailyrainin,SoftwareType,DateUTC
2013-04-07 00:04:00,48.7,24.7,30.05,NE,45,0.0,0.0,39,0.00,,,0.00,WUHU216HW,2013-04-07 04:04:00,
2013-04-07 00:10:00,48.7,24.7,30.05,NE,45,0.0,0.0,39,0.00,,,0.00,WUHU216HW,2013-04-07 04:10:00,
2013-04-07 00:16:00,48.7,25.4,30.05,NE,45,0.0,0.0,40,0.00,,,0.00,WUHU216HW,2013-04-07 04:16:00,
2013-04-07 00:22:00,48.7,25.4,30.05,NE,45,0.0,0.0,40,0.00,,,0.00,WUHU216HW,2013-04-07 04:22:00,
2013-04-07 00:29:00,48.7,25.4,30.05,NE,45,0.0,0.0,40,0.00,,,0.00,WUHU216HW,2013-04-07 04:29:00,
2013-04-07 00:33:00,48.5,25.3,30.05,NE,45,0.0,0.0,40,0.00,,,0.00,WUHU216HW,2013-04-07 04:33:00,
2013-04-07 00:39:00,48.5,25.3,30.05,NE,45,0.0,0.0,40,0.00,,,0.00,WUHU216HW,2013-04-07 04:39:00,
2013-04-07 00:44:00,48.5,25.8,30.05,ENE,68,0.0,0.0,41,0.00,,,0.00,WUHU216HW,2013-04-07 04:44:00,
2013-04-07 00:49:00,48.5,25.8,30.05,ENE,68,0.0,0.0,41,0.00,,,0.00,WUHU216HW,2013-04-07 04:49:00,
2013-04-07 00:56:00,48.5,25.8,30.05,ENE,68,0.0,0.0,41,0.00,,,0.00,WUHU216HW,2013-04-07 04:56:00,
2013-04-07 01:02:00,48.5,25.8,30.05,ENE,68,0.0,0.0,41,0.00,,,0.00,WUHU216HW,2013-04-07 05:02:00,
2013-04-07 01:12:00,48.3,26.2,30.04,ENE,68,0.0,0.0,42,0.00,,,0.00,WUHU216HW,2013-04-07 05:12:00,
2013-04-07 01:17:00,48.3,26.2,30.04,ENE,68,0.0,0.0,42,0.00,,,0.00,WUHU216HW,2013-04-07 05:17:00,
2013-04-07 01:29:00,48.2,26.6,30.04,ENE,68,0.0,0.0,43,0.00,,,0.00,WUHU216HW,2013-04-07 05:29:00,
2013-04-07 01:35:00,48.2,26.6,30.04,ENE,68,0.0,0.0,43,0.00,,,0.00,WUHU216HW,2013-04-07 05:35:00,
2013-04-07 01:46:00,48.2,27.1,30.04,ENE,68,0.0,0.0,44,0.00,,,0.00,WUHU216HW,2013-04-07 05:46:00,
2013-04-07 01:51:00,48.2,27.1,30.04,SSE,158,0.0,0.0,44,0.00,,,0.00,WUHU216HW,2013-04-07 05:51:00,
2013-04-07 01:57:00,48.2,27.1,30.04,SSE,158,0.0,0.0,44,0.00,,,0.00,WUHU216HW,2013-04-07 05:57:00,
2013-04-07 02:02:00,48.2,27.1,30.04,SSE,158,0.0,0.0,44,0.00,,,0.00,WUHU216HW,2013-04-07 06:02:00,
2013-04-07 02:07:00,48.0,26.9,30.04,SSE,158,0.0,0.0,44,0.00,,,0.00,WUHU216HW,2013-04-07 06:07:00,
2013-04-07 02:13:00,48.0,27.5,30.04,SSE,158,0.0,0.0,45,0.00,,,0.00,WUHU216HW,2013-04-07 06:13:00,
2013-04-07 02:19:00,48.0,27.5,30.03,SSE,158,0.0,0.0,45,0.00,,,0.00,WUHU216HW,2013-04-07 06:19:00,
2013-04-07 02:24:00,48.0,27.5,30.03,SSE,158,0.0,0.0,45,0.00,,,0.00,WUHU216HW,2013-04-07 06:24:00,
2013-04-07 02:29:00,48.0,27.5,30.03,SSE,158,0.0,0.0,45,0.00,,,0.00,WUHU216HW,2013-04-07 06:29:00,
2013-04-07 02:34:00,47.8,27.8,30.03,SSE,158,0.0,0.0,46,0.00,,,0.00,WUHU216HW,2013-04-07 06:34:00,
2013-04-07 02:40:00,48.0,28.0,30.03,SSE,158,0.0,0.0,46,0.00,,,0.00,WUHU216HW,2013-04-07 06:40:00,
2013-04-07 02:45:00,47.8,28.4,30.03,SSE,158,0.0,0.0,47,0.00,,,0.00,WUHU216HW,2013-04-07 06:45:00,
2013-04-07 02:50:00,48.0,29.1,30.03,SE,135,0.0,0.0,48,0.00,,,0.00,WUHU216HW,2013-04-07 06:50:00,
2013-04-07 02:56:00,48.5,29.6,30.03,ENE,68,0.0,0.0,48,0.00,,,0.00,WUHU216HW,2013-04-07 06:56:00,
2013-04-07 03:01:00,49.1,30.7,30.02,ENE,68,0.0,0.0,49,0.00,,,0.00,WUHU216HW,2013-04-07 07:01:00,
2013-04-07 03:12:00,50.9,31.8,30.02,ENE,68,0.0,0.0,48,0.00,,,0.00,WUHU216HW,2013-04-07 07:12:00,
2013-04-07 03:18:00,51.4,32.3,30.02,East,90,0.0,0.0,48,0.00,,,0.00,WUHU216HW,2013-04-07 07:18:00,
2013-04-07 03:27:00,52.3,32.6,30.01,SSE,158,0.0,0.0,47,0.00,,,0.00,WUHU216HW,2013-04-07 07:27:00,
2013-04-07 03:34:00,52.7,32.9,30.01,ENE,68,0.0,0.0,47,0.00,,,0.00,WUHU216HW,2013-04-07 07:34:00,
2013-04-07 03:49:00,53.2,33.4,30.01,NE,45,0.0,6.2,47,0.00,,,0.00,WUHU216HW,2013-04-07 07:49:00,
2013-04-07 03:54:00,53.6,33.1,30.01,East,90,0.0,6.2,46,0.00,,,0.00,WUHU216HW,2013-04-07 07:54:00,
2013-04-07 03:59:00,53.7,33.3,30.01,SSE,158,0.0,0.0,46,0.00,,,0.00,WUHU216HW,2013-04-07 07:59:00,
2013-04-07 04:05:00,53.7,33.3,30.01,ENE,68,0.0,6.4,46,0.00,,,0.00,WUHU216HW,2013-04-07 08:05:00,
2013-04-07 04:16:00,54.1,33.6,30.01,East,90,0.0,0.0,46,0.00,,,0.00,WUHU216HW,2013-04-07 08:16:00,
2013-04-07 04:21:00,54.1,33.6,30.01,East,90,0.0,0.0,46,0.00,,,0.00,WUHU216HW,2013-04-07 08:21:00,
2013-04-07 04:27:00,54.3,33.8,30.01,SSE,158,0.0,0.0,46,0.00,,,0.00,WUHU216HW,2013-04-07 08:27:00,
2013-04-07 04:32:00,54.3,33.8,30.00,SE,135,5.1,5.1,46,0.00,,,0.00,WUHU216HW,2013-04-07 08:32:00,
2013-04-07 04:37:00,54.3,33.2,30.01,NE,45,4.6,5.1,45,0.00,,,0.00,WUHU216HW,2013-04-07 08:37:00,
2013-04-07 04:42:00,54.5,33.4,30.00,NW,315,0.0,5.1,45,0.00,,,0.00,WUHU216HW,2013-04-07 08:42:00,
2013-04-07 04:54:00,54.6,33.6,30.00,ESE,113,0.0,0.0,45,0.00,,,0.00,WUHU216HW,2013-04-07 08:54:00,
2013-04-07 05:00:00,55.0,33.9,30.00,NE,45,0.0,0.0,45,0.00,,,0.00,WUHU216HW,2013-04-07 09:00:00,
2013-04-07 05:05:00,55.0,33.9,30.01,SSW,203,5.3,5.3,45,0.00,,,0.00,WUHU216HW,2013-04-07 09:05:00,
2013-04-07 05:11:00,55.0,33.9,30.00,NE,45,0.0,5.3,45,0.00,,,0.00,WUHU216HW,2013-04-07 09:11:00,
2013-04-07 05:16:00,55.0,33.9,30.00,SE,135,0.0,5.3,45,0.00,,,0.00,WUHU216HW,2013-04-07 09:16:00,
2013-04-07 05:21:00,55.0,33.9,30.00,ESE,113,0.0,0.0,45,0.00,,,0.00,WUHU216HW,2013-04-07 09:21:00,
2013-04-07 05:27:00,55.0,33.9,30.00,SE,135,0.0,0.0,45,0.00,,,0.00,WUHU216HW,2013-04-07 09:27:00,
2013-04-07 05:32:00,55.0,33.9,30.00,ESE,113,0.0,0.0,45,0.00,,,0.00,WUHU216HW,2013-04-07 09:32:00,
2013-04-07 05:38:00,55.0,33.9,30.00,South,180,0.0,7.6,45,0.00,,,0.00,WUHU216HW,2013-04-07 09:38:00,
2013-04-07 05:49:00,55.0,33.9,30.00,ENE,68,0.0,0.0,45,0.00,,,0.00,WUHU216HW,2013-04-07 09:49:00,
2013-04-07 05:54:00,55.0,33.9,30.00,NE,45,0.0,7.3,45,0.00,,,0.00,WUHU216HW,2013-04-07 09:54:00,
2013-04-07 05:59:00,55.0,33.9,30.00,SSE,158,0.0,7.3,45,0.00,,,0.00,WUHU216HW,2013-04-07 09:59:00,
2013-04-07 06:05:00,55.2,34.0,30.00,ESE,113,0.0,0.0,45,0.00,,,0.00,WUHU216HW,2013-04-07 10:05:00,
2013-04-07 06:10:00,55.2,34.0,30.00,SSE,158,0.0,0.0,45,0.00,,,0.00,WUHU216HW,2013-04-07 10:10:00,
2013-04-07 06:17:00,55.2,34.0,30.00,NNE,23,0.0,5.8,45,0.00,,,0.00,WUHU216HW,2013-04-07 10:17:00,
2013-04-07 06:27:00,55.2,34.0,30.00,ESE,113,0.0,3.5,45,0.00,,,0.00,WUHU216HW,2013-04-07 10:27:00,
2013-04-07 06:39:00,55.2,34.0,30.00,ENE,68,0.0,0.0,45,0.00,,,0.00,WUHU216HW,2013-04-07 10:39:00,
2013-04-07 06:49:00,55.2,34.0,30.00,South,180,0.0,7.1,45,0.00,,,0.00,WUHU216HW,2013-04-07 10:49:00,
2013-04-07 06:55:00,55.2,34.0,30.00,SE,135,0.0,7.1,45,0.00,,,0.00,WUHU216HW,2013-04-07 10:55:00,
2013-04-07 07:00:00,55.4,34.2,29.99,NE,45,0.0,4.9,45,0.00,,,0.00,WUHU216HW,2013-04-07 11:00:00,
2013-04-07 07:06:00,55.4,34.2,29.99,SSW,203,0.0,4.9,45,0.00,,,0.00,WUHU216HW,2013-04-07 11:06:00,
2013-04-07 07:12:00,55.5,34.4,29.99,SE,135,0.0,0.0,45,0.00,,,0.00,WUHU216HW,2013-04-07 11:12:00,
2013-04-07 07:17:00,55.5,34.4,30.00,SE,135,0.0,0.0,45,0.00,,,0.00,WUHU216HW,2013-04-07 11:17:00,
2013-04-07 07:22:00,55.5,34.4,30.00,ESE,113,4.6,4.6,45,0.00,,,0.00,WUHU216HW,2013-04-07 11:22:00,
2013-04-07 07:29:00,55.7,34.5,30.00,NE,45,0.0,4.6,45,0.00,,,0.00,WUHU216HW,2013-04-07 11:29:00,
2013-04-07 07:39:00,55.9,35.3,30.00,SSE,158,0.0,4.2,46,0.00,,,0.00,WUHU216HW,2013-04-07 11:39:00,
2013-04-07 07:45:00,56.1,35.4,30.00,ESE,113,0.0,0.0,46,0.00,,,0.00,WUHU216HW,2013-04-07 11:45:00,
2013-04-07 07:54:00,56.4,35.8,30.00,SE,135,0.0,0.0,46,0.00,,,0.00,WUHU216HW,2013-04-07 11:54:00,
2013-04-07 08:00:00,56.4,35.2,30.00,NE,45,0.0,0.0,45,0.00,,,0.00,WUHU216HW,2013-04-07 12:00:00,
2013-04-07 08:10:00,56.8,35.6,30.00,SE,135,0.0,0.0,45,0.00,,,0.00,WUHU216HW,2013-04-07 12:10:00,
2013-04-07 08:20:00,57.3,36.1,30.00,ESE,113,0.0,0.0,45,0.00,,,0.00,WUHU216HW,2013-04-07 12:20:00,
2013-04-07 08:25:00,57.7,36.4,30.00,SE,135,6.0,6.0,45,0.00,,,0.00,WUHU216HW,2013-04-07 12:25:00,
2013-04-07 08:31:00,58.6,37.2,30.00,NE,45,0.0,6.0,45,0.00,,,0.00,WUHU216HW,2013-04-07 12:31:00,
2013-04-07 08:36:00,58.8,36.8,30.00,North,0,0.0,7.3,44,0.00,,,0.00,WUHU216HW,2013-04-07 12:36:00,
2013-04-07 08:41:00,59.7,37.6,30.00,SE,135,0.0,7.3,44,0.00,,,0.00,WUHU216HW,2013-04-07 12:41:00,
2013-04-07 08:46:00,60.0,37.4,30.00,SE,135,4.6,8.2,43,0.00,,,0.00,WUHU216HW,2013-04-07 12:46:00,
2013-04-07 08:52:00,60.4,37.7,30.00,North,0,1.3,8.2,43,0.00,,,0.00,WUHU216HW,2013-04-07 12:52:00,
2013-04-07 09:02:00,61.1,38.3,30.00,ESE,113,0.0,6.7,43,0.00,,,0.00,WUHU216HW,2013-04-07 13:02:00,
2013-04-07 09:07:00,61.1,38.3,30.00,North,0,0.0,6.7,43,0.00,,,0.00,WUHU216HW,2013-04-07 13:07:00,
2013-04-07 09:13:00,61.5,38.6,29.99,SE,135,1.7,1.7,43,0.00,,,0.00,WUHU216HW,2013-04-07 13:13:00,
2013-04-07 09:29:00,62.9,39.4,29.99,SSE,158,0.0,9.8,42,0.00,,,0.00,WUHU216HW,2013-04-07 13:29:00,
2013-04-07 09:34:00,63.5,39.9,29.99,ESE,113,5.3,5.3,42,0.00,,,0.00,WUHU216HW,2013-04-07 13:34:00,
2013-04-07 09:39:00,64.0,40.0,29.98,SE,135,0.0,7.6,42,0.00,,,0.00,WUHU216HW,2013-04-07 13:39:00,
2013-04-07 09:49:00,64.9,40.6,29.98,SW,225,0.0,4.0,41,0.00,,,0.00,WUHU216HW,2013-04-07 13:49:00,
2013-04-07 09:55:00,65.3,40.9,29.98,WSW,248,0.0,0.0,41,0.00,,,0.00,WUHU216HW,2013-04-07 13:55:00,
2013-04-07 10:01:00,65.8,41.4,29.98,ENE,68,0.0,13.6,41,0.00,,,0.00,WUHU216HW,2013-04-07 14:01:00,
2013-04-07 10:06:00,66.3,41.3,29.98,WNW,293,0.0,13.6,40,0.00,,,0.00,WUHU216HW,2013-04-07 14:06:00,
2013-04-07 10:11:00,66.9,41.8,29.98,South,180,3.1,3.1,40,0.00,,,0.00,WUHU216HW,2013-04-07 14:11:00,
2013-04-07 10:16:00,66.9,41.8,29.98,ESE,113,6.4,6.4,40,0.00,,,0.00,WUHU216HW,2013-04-07 14:16:00,
2013-04-07 10:22:00,67.1,42.5,29.98,SW,225,0.0,6.4,41,0.00,,,0.00,WUHU216HW,2013-04-07 14:22:00,
2013-04-07 10:28:00,67.2,42.7,29.98,South,180,0.0,0.0,41,0.00,,,0.00,WUHU216HW,2013-04-07 14:28:00,
2013-04-07 10:43:00,68.1,42.9,29.98,NNW,338,0.0,4.4,40,0.00,,,0.00,WUHU216HW,2013-04-07 14:43:00,
2013-04-07 10:48:00,68.5,43.2,29.98,SE,135,0.0,0.0,40,0.00,,,0.00,WUHU216HW,2013-04-07 14:48:00,
2013-04-07 10:59:00,68.9,43.6,29.98,SSE,158,0.0,13.6,40,0.00,,,0.00,WUHU216HW,2013-04-07 14:59:00,
2013-04-07 11:05:00,69.4,44.0,29.97,WNW,293,0.0,0.0,40,0.00,,,0.00,WUHU216HW,2013-04-07 15:05:00,
2013-04-07 11:11:00,69.6,44.2,29.97,SW,225,0.0,0.0,40,0.00,,,0.00,WUHU216HW,2013-04-07 15:11:00,
2013-04-07 11:17:00,69.4,43.3,29.98,West,270,6.0,6.0,39,0.00,,,0.00,WUHU216HW,2013-04-07 15:17:00,
2013-04-07 11:22:00,69.4,44.0,29.97,SW,225,0.0,6.0,40,0.00,,,0.00,WUHU216HW,2013-04-07 15:22:00,
2013-04-07 11:27:00,69.4,44.0,29.97,SW,225,7.8,7.8,40,0.00,,,0.00,WUHU216HW,2013-04-07 15:27:00,
2013-04-07 11:39:00,69.6,44.2,29.97,SSE,158,0.0,6.2,40,0.00,,,0.00,WUHU216HW,2013-04-07 15:39:00,
2013-04-07 11:44:00,69.6,44.2,29.97,WNW,293,0.0,6.2,40,0.00,,,0.00,WUHU216HW,2013-04-07 15:44:00,
2013-04-07 11:54:00,70.3,45.5,29.97,SSE,158,8.0,8.0,41,0.00,,,0.00,WUHU216HW,2013-04-07 15:54:00,
2013-04-07 12:04:00,71.2,45.7,29.97,WSW,248,0.0,8.0,40,0.00,,,0.00,WUHU216HW,2013-04-07 16:04:00,
2013-04-07 12:09:00,71.9,46.3,29.97,South,180,0.0,4.6,40,0.00,,,0.00,WUHU216HW,2013-04-07 16:09:00,
2013-04-07 12:14:00,72.3,45.9,29.97,SSW,203,7.8,7.8,39,0.00,,,0.00,WUHU216HW,2013-04-07 16:14:00,
2013-04-07 12:20:00,72.5,46.0,29.96,South,180,0.0,7.8,39,0.00,,,0.00,WUHU216HW,2013-04-07 16:20:00,
2013-04-07 12:26:00,72.6,46.2,29.97,SSW,203,9.6,9.6,39,0.00,,,0.00,WUHU216HW,2013-04-07 16:26:00,
2013-04-07 12:32:00,72.8,46.4,29.97,SSW,203,0.0,9.6,39,0.00,,,0.00,WUHU216HW,2013-04-07 16:32:00,
2013-04-07 12:41:00,73.2,46.7,29.96,WNW,293,0.0,10.7,39,0.00,,,0.00,WUHU216HW,2013-04-07 16:41:00,
2013-04-07 12:47:00,73.2,46.7,29.96,NW,315,6.9,6.9,39,0.00,,,0.00,WUHU216HW,2013-04-07 16:47:00,
2013-04-07 12:57:00,73.2,46.7,29.96,SW,225,6.4,8.0,39,0.00,,,0.00,WUHU216HW,2013-04-07 16:57:00,
2013-04-07 13:02:00,73.2,46.7,29.96,WSW,248,4.2,8.0,39,0.00,,,0.00,WUHU216HW,2013-04-07 17:02:00,
2013-04-07 13:09:00,73.7,47.2,29.96,WNW,293,0.0,4.2,39,0.00,,,0.00,WUHU216HW,2013-04-07 17:09:00,
2013-04-07 13:20:00,75.0,47.6,29.96,WSW,248,5.5,5.5,38,0.00,,,0.00,WUHU216HW,2013-04-07 17:20:00,
2013-04-07 13:30:00,75.9,48.4,29.96,WNW,293,6.4,6.4,38,0.00,,,0.00,WUHU216HW,2013-04-07 17:30:00,
2013-04-07 13:35:00,75.9,47.6,29.95,WNW,293,6.2,8.7,37,0.00,,,0.00,WUHU216HW,2013-04-07 17:35:00,
2013-04-07 13:41:00,75.9,48.4,29.95,NW,315,9.1,9.1,38,0.00,,,0.00,WUHU216HW,2013-04-07 17:41:00,
2013-04-07 13:46:00,75.9,48.4,29.95,SSE,158,8.9,9.1,38,0.00,,,0.00,WUHU216HW,2013-04-07 17:46:00,
2013-04-07 13:53:00,76.2,48.7,29.95,SW,225,3.5,9.1,38,0.00,,,0.00,WUHU216HW,2013-04-07 17:53:00,
2013-04-07 14:02:00,76.4,48.9,29.95,SE,135,6.7,12.5,38,0.00,,,0.00,WUHU216HW,2013-04-07 18:02:00,
2013-04-07 14:07:00,75.7,48.2,29.95,NW,315,0.0,12.5,38,0.00,,,0.00,WUHU216HW,2013-04-07 18:07:00,
2013-04-07 14:20:00,73.9,47.3,29.94,NW,315,0.0,6.7,39,0.00,,,0.00,WUHU216HW,2013-04-07 18:20:00,
2013-04-07 14:30:00,75.0,49.1,29.94,SE,135,5.8,5.8,40,0.00,,,0.00,WUHU216HW,2013-04-07 18:30:00,
2013-04-07 14:39:00,76.2,49.4,29.94,SE,135,0.0,5.8,39,0.00,,,0.00,WUHU216HW,2013-04-07 18:39:00,
2013-04-07 14:45:00,76.6,49.0,29.94,North,0,0.0,1.3,38,0.00,,,0.00,WUHU216HW,2013-04-07 18:45:00,
2013-04-07 14:51:00,76.2,48.7,29.94,SSE,158,6.7,6.7,38,0.00,,,0.00,WUHU216HW,2013-04-07 18:51:00,
2013-04-07 14:57:00,75.9,49.1,29.94,South,180,0.0,6.7,39,0.00,,,0.00,WUHU216HW,2013-04-07 18:57:00,
2013-04-07 15:02:00,75.7,49.0,29.94,WSW,248,0.0,6.7,39,0.00,,,0.00,WUHU216HW,2013-04-07 19:02:00,
2013-04-07 15:09:00,75.3,48.6,29.94,WSW,248,0.0,0.0,39,0.00,,,0.00,WUHU216HW,2013-04-07 19:09:00,
2013-04-07 15:14:00,75.2,48.5,29.94,NW,315,7.1,7.1,39,0.00,,,0.00,WUHU216HW,2013-04-07 19:14:00,
2013-04-07 15:19:00,74.8,48.9,29.94,SSW,203,0.0,7.1,40,0.00,,,0.00,WUHU216HW,2013-04-07 19:19:00,
2013-04-07 15:25:00,74.4,48.3,29.94,SSW,203,0.0,5.5,40,0.00,,,0.00,WUHU216HW,2013-04-07 19:25:00,
2013-04-07 15:30:00,73.5,47.8,29.94,SW,225,5.8,5.8,40,0.00,,,0.00,WUHU216HW,2013-04-07 19:30:00,
2013-04-07 15:36:00,73.0,47.9,29.94,SW,225,0.0,5.8,41,0.00,,,0.00,WUHU216HW,2013-04-07 19:36:00,
2013-04-07 15:42:00,72.3,47.2,29.94,WSW,248,0.0,5.5,41,0.00,,,0.00,WUHU216HW,2013-04-07 19:42:00,
2013-04-07 15:48:00,72.1,47.7,29.94,West,270,0.0,5.5,42,0.00,,,0.00,WUHU216HW,2013-04-07 19:48:00,
2013-04-07 15:53:00,72.1,47.7,29.94,West,270,0.0,0.2,42,0.00,,,0.00,WUHU216HW,2013-04-07 19:53:00,
2013-04-07 15:59:00,71.9,47.5,29.94,SSW,203,0.0,0.2,42,0.00,,,0.00,WUHU216HW,2013-04-07 19:59:00,
2013-04-07 16:05:00,72.1,48.3,29.94,ESE,113,0.0,0.0,43,0.00,,,0.00,WUHU216HW,2013-04-07 20:05:00,
2013-04-07 16:14:00,72.8,48.7,29.94,West,270,0.0,4.2,43,0.00,,,0.00,WUHU216HW,2013-04-07 20:14:00,
2013-04-07 16:20:00,73.2,48.6,29.94,West,270,6.4,6.4,42,0.00,,,0.00,WUHU216HW,2013-04-07 20:20:00,
2013-04-07 16:25:00,73.2,48.6,29.94,WSW,248,0.0,6.4,42,0.00,,,0.00,WUHU216HW,2013-04-07 20:25:00,
2013-04-07 16:30:00,73.4,48.8,29.94,NW,315,0.0,6.4,42,0.00,,,0.00,WUHU216HW,2013-04-07 20:30:00,
2013-04-07 16:36:00,73.4,48.8,29.94,WNW,293,6.0,6.9,42,0.00,,,0.00,WUHU216HW,2013-04-07 20:36:00,
2013-04-07 16:42:00,73.2,48.6,29.94,WSW,248,0.0,7.6,42,0.00,,,0.00,WUHU216HW,2013-04-07 20:42:00,
2013-04-07 16:47:00,72.6,48.2,29.94,SW,225,6.2,7.6,42,0.00,,,0.00,WUHU216HW,2013-04-07 20:47:00,
2013-04-07 16:52:00,72.3,48.4,29.94,WNW,293,0.0,6.2,43,0.00,,,0.00,WUHU216HW,2013-04-07 20:52:00,
2013-04-07 16:57:00,71.9,48.1,29.95,WNW,293,0.0,6.9,43,0.00,,,0.00,WUHU216HW,2013-04-07 20:57:00,
2013-04-07 17:04:00,71.7,47.9,29.95,West,270,7.3,7.3,43,0.00,,,0.00,WUHU216HW,2013-04-07 21:04:00,
2013-04-07 17:13:00,71.4,50.0,29.95,SSE,158,0.0,7.8,47,0.00,,,0.00,WUHU216HW,2013-04-07 21:13:00,
2013-04-07 17:18:00,70.8,50.1,29.95,WSW,248,0.0,7.8,48,0.00,,,0.00,WUHU216HW,2013-04-07 21:18:00,
2013-04-07 17:24:00,70.7,50.5,29.95,West,270,0.0,0.0,49,0.00,,,0.00,WUHU216HW,2013-04-07 21:24:00,
2013-04-07 17:30:00,70.5,50.4,29.95,West,270,0.0,0.0,49,0.00,,,0.00,WUHU216HW,2013-04-07 21:30:00,
2013-04-07 17:39:00,70.3,50.2,29.95,WSW,248,0.0,0.0,49,0.00,,,0.00,WUHU216HW,2013-04-07 21:39:00,
2013-04-07 17:45:00,69.9,49.9,29.97,WSW,248,0.0,6.4,49,0.00,,,0.00,WUHU216HW,2013-04-07 21:45:00,
2013-04-07 17:50:00,69.8,50.3,29.96,SSE,158,7.1,7.1,50,0.00,,,0.00,WUHU216HW,2013-04-07 21:50:00,
2013-04-07 17:57:00,69.2,49.8,29.96,SW,225,0.0,7.1,50,0.00,,,0.00,WUHU216HW,2013-04-07 21:57:00,
2013-04-07 18:08:00,68.9,50.0,29.97,West,270,0.0,0.0,51,0.00,,,0.00,WUHU216HW,2013-04-07 22:08:00,
2013-04-07 18:14:00,68.7,49.8,29.97,West,270,0.0,0.0,51,0.00,,,0.00,WUHU216HW,2013-04-07 22:14:00,
2013-04-07 18:24:00,68.7,50.3,29.97,SSW,203,0.0,4.4,52,0.00,,,0.00,WUHU216HW,2013-04-07 22:24:00,
2013-04-07 18:30:00,68.5,50.1,29.97,SSW,203,0.0,4.4,52,0.00,,,0.00,WUHU216HW,2013-04-07 22:30:00,
2013-04-07 18:40:00,67.8,49.5,29.97,SW,225,0.0,0.0,52,0.00,,,0.00,WUHU216HW,2013-04-07 22:40:00,
2013-04-07 18:45:00,67.8,49.5,29.98,WSW,248,5.5,5.5,52,0.00,,,0.00,WUHU216HW,2013-04-07 22:45:00,
2013-04-07 18:51:00,67.2,49.5,29.98,WNW,293,0.0,5.5,53,0.00,,,0.00,WUHU216HW,2013-04-07 22:51:00,
2013-04-07 18:57:00,66.7,49.5,29.98,SSE,158,0.0,5.5,54,0.00,,,0.00,WUHU216HW,2013-04-07 22:57:00,
2013-04-07 19:02:00,66.3,49.7,29.98,NW,315,0.0,11.8,55,0.00,,,0.00,WUHU216HW,2013-04-07 23:02:00,
2013-04-07 19:07:00,66.0,49.3,29.98,West,270,0.0,11.8,55,0.00,,,0.00,WUHU216HW,2013-04-07 23:07:00,
2013-04-07 19:13:00,65.8,48.7,29.99,SE,135,0.0,0.0,54,0.00,,,0.00,WUHU216HW,2013-04-07 23:13:00,
2013-04-07 19:19:00,65.1,48.4,29.98,SW,225,0.0,0.0,55,0.00,,,0.00,WUHU216HW,2013-04-07 23:19:00,
2013-04-07 19:24:00,64.9,48.2,29.97,WSW,248,0.0,0.0,55,0.00,,,0.00,WUHU216HW,2013-04-07 23:24:00,
2013-04-07 19:29:00,64.2,48.0,29.98,WSW,248,0.0,0.0,56,0.00,,,0.00,WUHU216HW,2013-04-07 23:29:00,
2013-04-07 19:35:00,64.0,47.9,29.98,WSW,248,0.0,0.0,56,0.00,,,0.00,WUHU216HW,2013-04-07 23:35:00,
2013-04-07 19:41:00,63.3,47.2,29.98,WSW,248,0.0,0.0,56,0.00,,,0.00,WUHU216HW,2013-04-07 23:41:00,
2013-04-07 19:47:00,62.4,46.4,29.98,WSW,248,0.0,0.0,56,0.00,,,0.00,WUHU216HW,2013-04-07 23:47:00,
2013-04-07 19:53:00,62.0,46.6,29.99,WSW,248,0.0,0.0,57,0.00,,,0.00,WUHU216HW,2013-04-07 23:53:00,
2013-04-07 20:04:00,60.9,47.5,29.99,SW,225,0.0,0.0,61,0.00,,,0.00,WUHU216HW,2013-04-08 00:04:00,
2013-04-07 20:09:00,60.6,47.1,30.00,North,0,0.0,0.0,61,0.00,,,0.00,WUHU216HW,2013-04-08 00:09:00,
2013-04-07 20:15:00,60.6,47.1,30.00,North,0,0.0,0.0,61,0.00,,,0.00,WUHU216HW,2013-04-08 00:15:00,
2013-04-07 20:22:00,60.4,47.4,30.00,North,0,0.0,0.0,62,0.00,,,0.00,WUHU216HW,2013-04-08 00:22:00,
2013-04-07 20:27:00,60.0,47.4,30.00,North,0,0.0,0.0,63,0.00,,,0.00,WUHU216HW,2013-04-08 00:27:00,
2013-04-07 20:32:00,59.5,47.3,30.00,North,0,0.0,0.0,64,0.00,,,0.00,WUHU216HW,2013-04-08 00:32:00,
2013-04-07 20:39:00,59.3,47.5,30.00,North,0,0.0,0.0,65,0.00,,,0.00,WUHU216HW,2013-04-08 00:39:00,
2013-04-07 20:44:00,59.0,47.2,30.00,North,0,0.0,0.0,65,0.00,,,0.00,WUHU216HW,2013-04-08 00:44:00,
2013-04-07 20:50:00,58.8,47.0,30.01,North,0,0.0,0.0,65,0.00,,,0.00,WUHU216HW,2013-04-08 00:50:00,
2013-04-07 20:56:00,58.4,46.6,30.01,North,0,0.0,0.0,65,0.00,,,0.00,WUHU216HW,2013-04-08 00:56:00,
2013-04-07 21:02:00,57.7,46.0,30.01,North,0,0.0,0.0,65,0.00,,,0.00,WUHU216HW,2013-04-08 01:02:00,
2013-04-07 21:07:00,57.3,46.0,30.01,North,0,0.0,0.0,66,0.00,,,0.00,WUHU216HW,2013-04-08 01:07:00,
2013-04-07 21:17:00,56.8,45.9,30.01,North,0,0.0,0.0,67,0.00,,,0.00,WUHU216HW,2013-04-08 01:17:00,
2013-04-07 21:23:00,56.4,45.6,30.01,North,0,0.0,0.0,67,0.00,,,0.00,WUHU216HW,2013-04-08 01:23:00,
2013-04-07 21:28:00,56.3,45.8,30.02,North,0,0.0,0.0,68,0.00,,,0.00,WUHU216HW,2013-04-08 01:28:00,
2013-04-07 21:33:00,56.1,45.6,30.02,North,0,0.0,0.0,68,0.00,,,0.00,WUHU216HW,2013-04-08 01:33:00,
2013-04-07 21:38:00,55.9,45.9,30.02,North,0,0.0,0.0,69,0.00,,,0.00,WUHU216HW,2013-04-08 01:38:00,
2013-04-07 21:43:00,56.1,46.5,30.02,North,0,0.0,0.0,70,0.00,,,0.00,WUHU216HW,2013-04-08 01:43:00,
2013-04-07 21:49:00,56.3,47.0,30.02,NNE,23,0.0,0.0,71,0.00,,,0.00,WUHU216HW,2013-04-08 01:49:00,
2013-04-07 21:55:00,56.8,47.1,30.02,SE,135,0.0,0.0,70,0.00,,,0.00,WUHU216HW,2013-04-08 01:55:00,
2013-04-07 22:00:00,57.0,47.6,30.02,NE,45,0.0,0.0,71,0.00,,,0.00,WUHU216HW,2013-04-08 02:00:00,
2013-04-07 22:06:00,57.5,48.2,30.02,NE,45,0.0,0.0,71,0.00,,,0.00,WUHU216HW,2013-04-08 02:06:00,
2013-04-07 22:11:00,57.9,48.2,30.02,NE,45,0.0,0.0,70,0.00,,,0.00,WUHU216HW,2013-04-08 02:11:00,
2013-04-07 22:17:00,58.1,48.3,30.03,NE,45,0.0,0.0,70,0.00,,,0.00,WUHU216HW,2013-04-08 02:17:00,
2013-04-07 22:27:00,57.9,48.2,30.03,ENE,68,0.0,0.0,70,0.00,,,0.00,WUHU216HW,2013-04-08 02:27:00,
2013-04-07 22:33:00,57.9,48.2,30.02,ENE,68,0.0,0.0,70,0.00,,,0.00,WUHU216HW,2013-04-08 02:33:00,
2013-04-07 22:38:00,57.9,48.2,30.02,ENE,68,0.0,0.0,70,0.00,,,0.00,WUHU216HW,2013-04-08 02:38:00,
2013-04-07 22:43:00,57.9,48.5,30.02,NE,45,0.0,0.0,71,0.00,,,0.00,WUHU216HW,2013-04-08 02:43:00,
2013-04-07 22:48:00,58.1,48.7,30.02,NNE,23,0.0,0.0,71,0.00,,,0.00,WUHU216HW,2013-04-08 02:48:00,
2013-04-07 22:54:00,58.2,48.5,30.02,SE,135,0.0,0.0,70,0.00,,,0.00,WUHU216HW,2013-04-08 02:54:00,
2013-04-07 23:05:00,58.6,49.2,30.03,NNW,338,0.0,0.0,71,0.00,,,0.00,WUHU216HW,2013-04-08 03:05:00,
2013-04-07 23:10:00,58.8,49.1,30.03,NNW,338,0.0,0.0,70,0.00,,,0.00,WUHU216HW,2013-04-08 03:10:00,
2013-04-07 23:16:00,58.2,48.1,30.03,NNW,338,0.0,0.0,69,0.00,,,0.00,WUHU216HW,2013-04-08 03:16:00,
2013-04-07 23:27:00,58.1,48.3,30.04,West,270,0.0,0.0,70,0.00,,,0.00,WUHU216HW,2013-04-08 03:27:00,
2013-04-07 23:32:00,57.9,48.2,30.04,West,270,0.0,0.0,70,0.00,,,0.00,WUHU216HW,2013-04-08 03:32:00,
2013-04-07 23:37:00,57.7,48.0,30.04,West,270,0.0,0.0,70,0.00,,,0.00,WUHU216HW,2013-04-08 03:37:00,
2013-04-07 23:43:00,57.3,47.2,30.04,West,270,0.0,0.0,69,0.00,,,0.00,WUHU216HW,2013-04-08 03:43:00,
2013-04-07 23:49:00,56.4,46.4,30.04,West,270,0.0,0.0,69,0.00,,,0.00,WUHU216HW,2013-04-08 03:49:00,